Terminal Aerodrome Forecast
Issued by NWS Topeka, KS

Home | Current Version | Previous Version | Text Only | Print | Product List | Glossary On
Versions: 1 2 3 4 5 6 7 8 9 10 11 12 13 14 15 16
000
FTUS43 KTOP 220300 AAA
TAFTOP
TAF AMD
KTOP 220302Z 2203/2224 12003KT 3SM -DZ BR OVC010
     FM220700 18004KT 1SM -DZ BR OVC009
      TEMPO 2207/2211 1/2SM -DZ FG OVC003
     FM221600 19008KT 5SM BR SCT015 BKN025=

USA.gov is the U.S. government's official web portal to all federal, state and local government web resources and services.